createdAt,value
2019-03-26T00:01:48.600Z,5.65
2019-03-26T00:04:15.971Z,6.03
2019-03-26T00:06:43.371Z,5.72
2019-03-26T00:09:10.780Z,6.55
2019-03-26T00:11:38.478Z,6.40
2019-03-26T00:14:05.890Z,6.33
2019-03-26T00:16:33.259Z,6.67
2019-03-26T00:19:00.644Z,7.33
2019-03-26T00:21:28.029Z,7.10
2019-03-26T00:23:55.422Z,7.42
2019-03-26T00:26:24.332Z,7.15
2019-03-26T00:28:51.751Z,7.53
2019-03-26T00:31:19.207Z,8.20
2019-03-26T00:33:46.593Z,7.33
2019-03-26T00:36:14.029Z,6.70
2019-03-26T00:38:41.589Z,7.62
2019-03-26T00:41:09.173Z,7.55
2019-03-26T00:43:36.556Z,7.47
2019-03-26T00:46:03.975Z,7.03
2019-03-26T00:48:31.353Z,6.65
2019-03-26T00:50:58.755Z,6.37
2019-03-26T00:53:26.123Z,6.83
2019-03-26T00:55:53.493Z,7.17
2019-03-26T00:58:20.951Z,6.47
2019-03-26T01:00:48.398Z,7.50
2019-03-26T01:03:15.764Z,6.55
2019-03-26T01:05:43.193Z,6.40
2019-03-26T01:08:10.599Z,6.62
2019-03-26T01:10:37.990Z,7.30
2019-03-26T01:13:05.577Z,6.80
2019-03-26T01:15:32.967Z,6.75
2019-03-26T01:18:00.355Z,6.25
2019-03-26T01:20:27.783Z,6.55
2019-03-26T01:22:55.235Z,6.83
2019-03-26T01:25:22.705Z,6.80
2019-03-26T01:27:50.141Z,6.85
2019-03-26T01:30:17.545Z,6.62
2019-03-26T01:32:44.928Z,7.35
2019-03-26T01:35:12.308Z,7.25
2019-03-26T01:37:39.697Z,7.15
2019-03-26T01:40:07.342Z,7.08
2019-03-26T01:42:34.725Z,7.15
2019-03-26T01:45:02.181Z,8.40
2019-03-26T01:47:29.563Z,7.72
2019-03-26T01:49:56.962Z,7.42
2019-03-26T01:52:24.367Z,7.42
2019-03-26T01:54:51.767Z,8.43
2019-03-26T01:57:19.184Z,7.40
2019-03-26T01:59:46.573Z,7.35
2019-03-26T02:02:13.961Z,6.92
2019-03-26T02:04:41.400Z,7.03
2019-03-26T02:07:08.808Z,8.80
2019-03-26T02:09:36.167Z,8.13
2019-03-26T02:12:03.558Z,7.65
2019-03-26T02:14:32.023Z,7.08
2019-03-26T02:16:59.461Z,8.28
2019-03-26T02:19:26.855Z,8.40
2019-03-26T02:21:54.293Z,8.35
2019-03-26T02:24:21.692Z,7.53
2019-03-26T02:26:49.089Z,7.80
2019-03-26T02:29:16.539Z,7.28
2019-03-26T02:31:43.900Z,7.30
2019-03-26T02:34:11.270Z,7.47
2019-03-26T02:36:38.662Z,6.67
2019-03-26T02:39:06.283Z,7.83
2019-03-26T02:41:37.568Z,6.97
2019-03-26T02:44:02.798Z,7.75
2019-03-26T02:46:30.166Z,6.70
2019-03-26T02:48:57.563Z,6.97
2019-03-26T02:51:24.932Z,6.87
2019-03-26T02:53:52.358Z,6.75
2019-03-26T02:56:19.760Z,7.35
2019-03-26T02:58:47.142Z,7.53
2019-03-26T03:01:14.530Z,6.55
2019-03-26T03:03:41.907Z,6.67
2019-03-26T03:06:09.300Z,6.75
2019-03-26T03:08:36.775Z,7.15
2019-03-26T03:11:04.509Z,7.28
2019-03-26T03:13:31.869Z,7.70
2019-03-26T03:15:59.281Z,7.20
2019-03-26T03:18:26.753Z,6.85
2019-03-26T03:20:54.224Z,6.90
2019-03-26T03:23:21.747Z,6.20
2019-03-26T03:25:49.155Z,6.75
2019-03-26T03:28:16.526Z,6.78
2019-03-26T03:30:43.933Z,6.80
2019-03-26T03:33:11.346Z,7.50
2019-03-26T03:35:51.139Z,7.30
2019-03-26T03:38:07.830Z,6.80
2019-03-26T03:40:35.209Z,6.53
2019-03-26T03:43:02.609Z,6.25
2019-03-26T03:45:30.147Z,6.17
2019-03-26T03:47:57.983Z,6.62
2019-03-26T03:50:26.710Z,6.15
2019-03-26T03:52:55.790Z,6.55
2019-03-26T03:55:23.267Z,5.78
2019-03-26T03:57:52.928Z,5.78
2019-03-26T04:00:22.284Z,5.40
2019-03-26T04:02:49.673Z,6.20
2019-03-26T04:05:17.069Z,5.92
2019-03-26T04:07:44.429Z,5.45
2019-03-26T04:10:11.816Z,5.80
2019-03-26T04:12:39.174Z,5.92
2019-03-26T04:15:06.547Z,5.87
2019-03-26T04:17:33.931Z,5.37
2019-03-26T04:20:01.328Z,6.30
2019-03-26T04:22:28.759Z,5.33
2019-03-26T04:24:56.201Z,6.28
2019-03-26T04:27:23.635Z,4.85
2019-03-26T04:29:51.027Z,5.00
2019-03-26T04:32:18.430Z,5.50
2019-03-26T04:34:45.839Z,5.10
2019-03-26T04:37:13.246Z,4.92
2019-03-26T04:39:40.625Z,5.03
2019-03-26T04:42:08.036Z,5.10
2019-03-26T04:44:35.396Z,5.25
2019-03-26T04:47:02.757Z,5.60
2019-03-26T04:49:30.157Z,5.22
2019-03-26T04:51:57.537Z,5.45
2019-03-26T04:54:24.963Z,5.25
2019-03-26T04:56:52.334Z,5.30
2019-03-26T04:59:19.697Z,5.40
2019-03-26T05:01:47.663Z,5.42
2019-03-26T05:04:15.260Z,5.70
2019-03-26T05:06:42.640Z,5.60
2019-03-26T05:09:10.109Z,5.62
2019-03-26T05:11:37.516Z,6.25
2019-03-26T05:14:04.966Z,6.62
2019-03-26T05:16:32.410Z,6.90
2019-03-26T05:18:59.785Z,8.20
2019-03-26T05:21:27.173Z,6.15
2019-03-26T05:23:54.538Z,7.80
2019-03-26T05:26:21.950Z,7.87
2019-03-26T05:28:49.373Z,8.03
2019-03-26T05:31:16.810Z,6.72
2019-03-26T05:33:44.213Z,8.88
2019-03-26T05:36:11.672Z,8.80
2019-03-26T05:38:39.032Z,8.45
2019-03-26T05:41:06.421Z,8.98
2019-03-26T05:43:33.800Z,9.63
2019-03-26T05:46:01.187Z,9.60
2019-03-26T05:48:28.599Z,9.70
2019-03-26T05:50:55.964Z,9.18
2019-03-26T05:53:23.370Z,9.05
2019-03-26T05:55:50.922Z,9.98
2019-03-26T05:58:18.291Z,9.70
2019-03-26T06:00:45.660Z,11.80
2019-03-26T06:03:13.064Z,12.07
2019-03-26T06:05:40.440Z,10.78
2019-03-26T06:08:07.854Z,10.82
2019-03-26T06:10:35.241Z,10.13
2019-03-26T06:13:02.646Z,10.72
2019-03-26T06:15:30.036Z,10.78
2019-03-26T06:17:57.741Z,11.30
2019-03-26T06:20:25.218Z,9.73
2019-03-26T06:22:52.600Z,11.00
2019-03-26T06:25:19.984Z,11.00
2019-03-26T06:27:47.422Z,10.53
2019-03-26T06:30:14.902Z,11.40
2019-03-26T06:32:42.372Z,10.32
2019-03-26T06:35:09.925Z,11.45
2019-03-26T06:37:37.400Z,9.70
2019-03-26T06:40:06.322Z,11.40
2019-03-26T06:42:33.744Z,9.65
2019-03-26T06:45:01.129Z,10.50
2019-03-26T06:47:28.583Z,9.23
2019-03-26T06:49:56.040Z,8.05
2019-03-26T06:52:23.513Z,8.90
2019-03-26T06:54:51.930Z,9.40
2019-03-26T06:57:19.592Z,8.60
2019-03-26T06:59:47.030Z,8.08
2019-03-26T07:02:14.497Z,7.80
2019-03-26T07:04:47.862Z,8.73
2019-03-26T07:07:15.528Z,6.75
2019-03-26T07:09:42.967Z,7.90
2019-03-26T07:12:10.387Z,6.17
2019-03-26T07:14:37.841Z,7.05
2019-03-26T07:17:05.310Z,6.05
2019-03-26T07:19:32.703Z,5.67
2019-03-26T07:22:00.090Z,5.60
2019-03-26T07:24:27.473Z,5.70
2019-03-26T07:26:54.860Z,5.30
2019-03-26T07:29:22.284Z,6.00
2019-03-26T07:31:49.660Z,6.30
2019-03-26T07:34:17.060Z,6.60
2019-03-26T07:36:44.423Z,5.70
2019-03-26T07:39:11.840Z,5.90
2019-03-26T07:41:39.224Z,4.65
2019-03-26T07:44:06.622Z,5.33
2019-03-26T07:46:34.077Z,4.92
2019-03-26T07:49:01.524Z,5.50
2019-03-26T07:51:28.928Z,5.28
2019-03-26T07:53:56.317Z,4.53
2019-03-26T07:56:23.756Z,4.12
2019-03-26T07:58:51.185Z,4.42
2019-03-26T08:01:18.608Z,5.58
2019-03-26T08:03:46.004Z,4.87
2019-03-26T08:06:13.401Z,4.62
2019-03-26T08:08:40.975Z,5.05
2019-03-26T08:11:08.425Z,5.65
2019-03-26T08:13:35.889Z,4.42
2019-03-26T08:16:03.350Z,4.80
2019-03-26T08:18:30.757Z,4.10
2019-03-26T08:20:58.142Z,4.47
2019-03-26T08:23:25.533Z,6.05
2019-03-26T08:25:53.012Z,4.33
2019-03-26T08:28:20.424Z,5.30
2019-03-26T08:30:50.172Z,4.70
2019-03-26T08:33:16.882Z,4.80
2019-03-26T08:35:44.282Z,3.30
2019-03-26T08:38:13.175Z,4.17
2019-03-26T08:40:40.840Z,3.63
2019-03-26T08:43:08.213Z,3.77
2019-03-26T08:45:35.603Z,3.67
2019-03-26T08:48:03.238Z,4.43
2019-03-26T08:50:30.642Z,3.70
2019-03-26T08:52:58.034Z,3.10
2019-03-26T08:55:25.446Z,3.37
2019-03-26T08:57:52.841Z,4.23
2019-03-26T09:00:20.244Z,3.43
2019-03-26T09:02:47.610Z,2.57
2019-03-26T09:05:15.061Z,2.50
2019-03-26T09:07:42.448Z,3.13
2019-03-26T09:10:10.520Z,3.60
2019-03-26T09:12:39.542Z,3.00
2019-03-26T09:15:08.873Z,3.03
2019-03-26T09:17:36.281Z,3.30
2019-03-26T09:20:04.514Z,3.60
2019-03-26T09:22:31.954Z,3.40
2019-03-26T09:24:59.373Z,3.33
2019-03-26T09:27:26.811Z,3.23
2019-03-26T09:29:54.250Z,3.50
2019-03-26T09:32:21.612Z,3.47
2019-03-26T09:34:49.015Z,3.10
2019-03-26T09:37:16.396Z,3.07
2019-03-26T09:39:43.877Z,2.60
2019-03-26T09:42:11.333Z,3.43
2019-03-26T09:44:38.706Z,2.47
2019-03-26T09:47:15.992Z,2.50
2019-03-26T09:49:35.228Z,2.83
2019-03-26T09:52:02.609Z,2.40
2019-03-26T09:54:29.978Z,2.47
2019-03-26T09:56:57.361Z,2.90
2019-03-26T09:59:24.766Z,2.73
2019-03-26T10:01:52.126Z,3.67
2019-03-26T10:04:19.496Z,2.30
2019-03-26T10:06:46.879Z,2.77
2019-03-26T10:09:14.669Z,3.10
2019-03-26T10:11:42.991Z,3.00
2019-03-26T10:14:10.370Z,3.40
2019-03-26T10:16:37.757Z,2.27
2019-03-26T10:19:05.134Z,2.77
2019-03-26T10:21:32.523Z,2.53
2019-03-26T10:23:59.947Z,2.77
2019-03-26T10:26:27.397Z,2.47
2019-03-26T10:28:54.764Z,2.23
2019-03-26T10:31:22.195Z,2.73
2019-03-26T10:33:49.619Z,2.90
2019-03-26T10:36:17.068Z,3.93
2019-03-26T10:38:44.508Z,2.70
2019-03-26T10:41:11.994Z,2.80
2019-03-26T10:43:39.408Z,3.13
2019-03-26T10:46:06.761Z,2.57
2019-03-26T10:48:34.152Z,2.17
2019-03-26T10:51:01.549Z,2.73
2019-03-26T10:53:28.947Z,2.70
2019-03-26T10:55:56.307Z,2.50
2019-03-26T10:58:23.730Z,2.50
2019-03-26T11:00:51.113Z,3.50
2019-03-26T11:03:18.531Z,3.10
2019-03-26T11:05:45.970Z,3.50
2019-03-26T11:08:13.363Z,3.07
2019-03-26T11:10:40.875Z,3.17
2019-03-26T11:13:08.559Z,3.27
2019-03-26T11:15:35.958Z,3.53
2019-03-26T11:18:03.383Z,3.27
2019-03-26T11:20:30.768Z,3.77
2019-03-26T11:22:58.163Z,3.37
2019-03-26T11:25:25.630Z,3.27
2019-03-26T11:27:53.090Z,2.77
2019-03-26T11:30:20.492Z,2.83
2019-03-26T11:32:47.940Z,2.93
2019-03-26T11:35:15.459Z,2.50
2019-03-26T11:37:43.159Z,3.00
2019-03-26T11:40:10.600Z,2.60
2019-03-26T11:42:38.006Z,2.87
2019-03-26T11:45:06.556Z,2.53
2019-03-26T11:47:33.935Z,2.87
2019-03-26T11:50:04.553Z,2.67
2019-03-26T11:52:30.444Z,3.30
2019-03-26T11:54:57.813Z,2.90
2019-03-26T11:57:25.202Z,2.97
2019-03-26T11:59:52.570Z,2.53
2019-03-26T12:02:19.984Z,3.23
2019-03-26T12:04:47.512Z,3.60
2019-03-26T12:07:14.994Z,3.33
2019-03-26T12:09:46.565Z,3.10
2019-03-26T12:12:11.565Z,2.93
2019-03-26T12:14:40.467Z,4.47
2019-03-26T12:17:07.871Z,3.60
2019-03-26T12:19:35.340Z,5.00
2019-03-26T12:22:02.737Z,4.87
2019-03-26T12:24:30.122Z,3.70
2019-03-26T12:26:57.506Z,5.30
2019-03-26T12:29:24.913Z,5.10
2019-03-26T12:31:52.305Z,4.40
2019-03-26T12:34:19.688Z,4.10
2019-03-26T12:36:47.116Z,4.60
2019-03-26T12:39:14.498Z,4.08
2019-03-26T12:41:41.888Z,3.55
2019-03-26T12:44:09.272Z,4.15
2019-03-26T12:46:36.694Z,4.20
2019-03-26T12:49:04.105Z,3.98
2019-03-26T12:51:31.579Z,4.17
2019-03-26T12:53:58.966Z,5.30
2019-03-26T12:56:26.351Z,4.20
2019-03-26T12:58:53.781Z,3.63
2019-03-26T13:01:21.188Z,4.33
2019-03-26T13:03:48.554Z,3.70
2019-03-26T13:06:15.936Z,4.07
2019-03-26T13:08:43.329Z,3.63
2019-03-26T13:11:10.721Z,2.27
2019-03-26T13:13:38.185Z,2.83
2019-03-26T13:16:05.630Z,2.60
2019-03-26T13:18:33.008Z,2.60
2019-03-26T13:21:00.480Z,2.20
2019-03-26T13:23:27.856Z,2.30
2019-03-26T13:25:55.280Z,2.70
2019-03-26T13:28:22.728Z,2.47
2019-03-26T13:30:50.159Z,2.40
2019-03-26T13:33:17.554Z,2.80
2019-03-26T13:35:44.939Z,2.57
2019-03-26T13:38:12.372Z,3.50
2019-03-26T13:40:39.803Z,2.37
2019-03-26T13:43:07.199Z,2.63
2019-03-26T13:45:35.694Z,3.23
2019-03-26T13:48:03.166Z,2.77
2019-03-26T13:50:30.550Z,2.80
2019-03-26T13:52:57.985Z,3.00
2019-03-26T13:55:25.441Z,2.63
2019-03-26T13:57:52.860Z,2.87
2019-03-26T14:00:21.796Z,3.10
2019-03-26T14:02:49.212Z,3.67
2019-03-26T14:05:24.122Z,2.47
2019-03-26T14:07:51.664Z,2.67
2019-03-26T14:10:19.098Z,2.83
2019-03-26T14:12:46.528Z,2.70
2019-03-26T14:15:13.906Z,3.03
2019-03-26T14:17:41.326Z,3.10
2019-03-26T14:20:09.118Z,2.50
2019-03-26T14:22:36.560Z,2.40
2019-03-26T14:25:04.428Z,3.00
2019-03-26T14:27:31.837Z,2.20
2019-03-26T14:29:59.281Z,2.33
2019-03-26T14:32:26.686Z,2.90
2019-03-26T14:34:54.096Z,2.35
2019-03-26T14:37:21.502Z,2.20
2019-03-26T14:39:48.875Z,2.83
2019-03-26T14:42:16.236Z,2.20
2019-03-26T14:44:43.633Z,2.53
2019-03-26T14:47:10.987Z,2.53
2019-03-26T14:49:38.345Z,2.87
2019-03-26T14:52:05.729Z,2.87
2019-03-26T14:54:33.099Z,2.77
2019-03-26T14:57:00.496Z,3.67
2019-03-26T14:59:27.906Z,3.30
2019-03-26T15:01:55.319Z,2.60
2019-03-26T15:04:22.693Z,3.00
2019-03-26T15:06:50.063Z,3.27
2019-03-26T15:09:17.511Z,2.60
2019-03-26T15:11:44.959Z,3.03
2019-03-26T15:14:12.385Z,3.20
2019-03-26T15:16:39.880Z,3.50
2019-03-26T15:19:07.369Z,2.70
2019-03-26T15:21:34.775Z,2.87
2019-03-26T15:24:02.167Z,3.93
2019-03-26T15:26:29.543Z,3.90
2019-03-26T15:28:56.955Z,3.90
2019-03-26T15:31:24.354Z,3.13
2019-03-26T15:33:51.795Z,4.20
2019-03-26T15:36:19.202Z,3.30
2019-03-26T15:38:46.650Z,2.63
2019-03-26T15:41:21.479Z,3.17
2019-03-26T15:43:43.151Z,2.80
2019-03-26T15:46:10.520Z,2.87
2019-03-26T15:48:37.925Z,3.63
2019-03-26T15:51:05.291Z,2.90
2019-03-26T15:53:32.664Z,1.97
2019-03-26T15:56:00.075Z,2.43
2019-03-26T15:58:27.514Z,2.37
2019-03-26T16:00:54.972Z,2.27
2019-03-26T16:03:22.719Z,2.77
2019-03-26T16:05:50.341Z,2.70
2019-03-26T16:08:17.779Z,2.47
2019-03-26T16:10:45.193Z,2.13
2019-03-26T16:13:12.571Z,2.00
2019-03-26T16:15:44.750Z,2.37
2019-03-26T16:18:09.096Z,2.60
2019-03-26T16:20:36.575Z,2.63
2019-03-26T16:23:04.085Z,2.30
2019-03-26T16:25:31.549Z,3.10
2019-03-26T16:27:58.934Z,1.83
2019-03-26T16:30:26.303Z,2.20
2019-03-26T16:32:53.746Z,2.50
2019-03-26T16:35:21.202Z,3.97
2019-03-26T16:37:48.675Z,2.80
2019-03-26T16:40:16.116Z,2.20
2019-03-26T16:42:43.539Z,2.33
2019-03-26T16:45:11.166Z,2.77
2019-03-26T16:47:38.585Z,2.50
2019-03-26T16:50:06.923Z,2.23
2019-03-26T16:52:34.315Z,2.20
2019-03-26T16:55:01.721Z,2.20
2019-03-26T16:57:29.105Z,2.90
2019-03-26T16:59:56.482Z,2.93
2019-03-26T17:02:23.858Z,3.90
2019-03-26T17:04:51.285Z,3.83
2019-03-26T17:07:18.697Z,2.63
2019-03-26T17:09:46.079Z,2.90
2019-03-26T17:12:13.523Z,2.53
2019-03-26T17:14:40.994Z,2.80
2019-03-26T17:17:08.441Z,2.60
2019-03-26T17:19:35.823Z,2.80
2019-03-26T17:22:03.342Z,2.97
2019-03-26T17:24:30.817Z,3.07
2019-03-26T17:26:58.287Z,2.83
2019-03-26T17:29:25.689Z,3.27
2019-03-26T17:31:53.063Z,3.80
2019-03-26T17:34:20.523Z,3.30
2019-03-26T17:36:47.929Z,3.13
2019-03-26T17:39:15.450Z,3.00
2019-03-26T17:41:42.848Z,3.37
2019-03-26T17:44:10.210Z,3.20
2019-03-26T17:46:37.606Z,3.10
2019-03-26T17:49:05.145Z,4.40
2019-03-26T17:51:32.678Z,4.33
2019-03-26T17:54:00.145Z,3.00
2019-03-26T17:56:29.861Z,3.30
2019-03-26T17:58:57.249Z,3.73
2019-03-26T18:01:24.673Z,3.23
2019-03-26T18:03:52.117Z,3.60
2019-03-26T18:06:19.515Z,4.33
2019-03-26T18:08:46.968Z,4.60
2019-03-26T18:11:14.376Z,3.43
2019-03-26T18:13:41.819Z,3.80
2019-03-26T18:16:09.270Z,3.13
2019-03-26T18:18:36.728Z,4.20
2019-03-26T18:21:04.268Z,4.17
2019-03-26T18:23:31.743Z,3.63
2019-03-26T18:25:59.140Z,3.73
2019-03-26T18:28:26.521Z,2.87
2019-03-26T18:30:53.904Z,3.60
2019-03-26T18:33:22.868Z,3.30
2019-03-26T18:35:50.301Z,3.00
2019-03-26T18:38:17.739Z,4.27
2019-03-26T18:40:45.204Z,3.73
2019-03-26T18:43:12.664Z,3.67
2019-03-26T18:45:40.196Z,2.83
2019-03-26T18:48:07.613Z,3.20
2019-03-26T18:50:34.978Z,3.00
2019-03-26T18:53:02.426Z,3.77
2019-03-26T18:55:29.857Z,3.37
2019-03-26T18:57:57.237Z,3.40
2019-03-26T19:00:32.267Z,3.17
2019-03-26T19:02:59.777Z,3.60
2019-03-26T19:05:27.260Z,3.37
2019-03-26T19:07:54.690Z,3.43
2019-03-26T19:10:25.870Z,3.17
2019-03-26T19:12:57.206Z,3.63
2019-03-26T19:15:22.556Z,3.97
2019-03-26T19:17:49.914Z,3.00
2019-03-26T19:20:17.297Z,3.80
2019-03-26T19:22:44.705Z,4.47
2019-03-26T19:25:12.071Z,3.37
2019-03-26T19:27:39.458Z,3.03
2019-03-26T19:30:07.028Z,3.90
2019-03-26T19:32:34.399Z,3.10
2019-03-26T19:35:01.840Z,4.00
2019-03-26T19:37:29.256Z,4.40
2019-03-26T19:39:56.658Z,3.90
2019-03-26T19:42:24.083Z,4.70
2019-03-26T19:44:51.469Z,3.60
2019-03-26T19:47:18.848Z,3.57
2019-03-26T19:49:46.419Z,3.33
2019-03-26T19:52:13.899Z,4.40
2019-03-26T19:54:41.267Z,3.30
2019-03-26T19:57:08.773Z,3.83
2019-03-26T19:59:36.189Z,4.60
2019-03-26T20:02:03.567Z,3.80
2019-03-26T20:04:32.665Z,3.80
2019-03-26T20:07:00.108Z,3.20
2019-03-26T20:09:27.708Z,4.50
2019-03-26T20:11:55.168Z,4.30
2019-03-26T20:14:22.594Z,4.23
2019-03-26T20:16:50.010Z,4.13
2019-03-26T20:19:17.473Z,4.10
2019-03-26T20:21:49.705Z,4.10
2019-03-26T20:24:14.149Z,3.60
2019-03-26T20:26:41.568Z,3.93
2019-03-26T20:29:08.935Z,4.23
2019-03-26T20:31:36.338Z,3.60
2019-03-26T20:34:03.734Z,3.40
2019-03-26T20:36:31.104Z,3.37
2019-03-26T20:38:58.486Z,4.10
2019-03-26T20:41:25.930Z,3.40
2019-03-26T20:43:53.343Z,3.47
2019-03-26T20:46:20.719Z,4.40
2019-03-26T20:48:48.094Z,3.20
2019-03-26T20:51:15.502Z,3.23
2019-03-26T20:53:42.913Z,4.23
2019-03-26T20:56:10.302Z,3.47
2019-03-26T20:58:37.763Z,3.60
2019-03-26T21:01:05.254Z,3.33
2019-03-26T21:03:32.644Z,3.60
2019-03-26T21:06:00.029Z,3.17
2019-03-26T21:08:27.405Z,2.90
2019-03-26T21:10:54.901Z,3.37
2019-03-26T21:13:22.389Z,3.50
2019-03-26T21:15:57.065Z,3.60
2019-03-26T21:18:18.943Z,3.97
2019-03-26T21:20:46.378Z,3.93
2019-03-26T21:23:13.786Z,3.83
2019-03-26T21:25:41.179Z,3.67
2019-03-26T21:28:08.640Z,4.20
2019-03-26T21:30:36.030Z,3.77
2019-03-26T21:33:03.496Z,3.63
2019-03-26T21:35:30.863Z,4.13
2019-03-26T21:37:58.247Z,3.53
2019-03-26T21:40:25.715Z,3.40
2019-03-26T21:42:53.089Z,4.00
2019-03-26T21:45:24.752Z,3.43
2019-03-26T21:47:52.181Z,3.80
2019-03-26T21:50:19.619Z,4.03
2019-03-26T21:52:47.009Z,3.40
2019-03-26T21:55:14.475Z,3.70
2019-03-26T21:57:41.868Z,3.20
2019-03-26T22:00:09.490Z,4.30
2019-03-26T22:02:36.890Z,4.03
2019-03-26T22:05:05.827Z,3.57
2019-03-26T22:07:33.197Z,2.90
2019-03-26T22:10:00.594Z,3.80
2019-03-26T22:12:27.956Z,3.10
2019-03-26T22:14:55.376Z,3.83
2019-03-26T22:17:22.738Z,3.50
2019-03-26T22:19:50.210Z,3.50
2019-03-26T22:22:17.593Z,4.00
2019-03-26T22:24:46.484Z,3.40
2019-03-26T22:27:13.880Z,3.85
2019-03-26T22:29:41.263Z,3.73
2019-03-26T22:32:08.668Z,4.00
2019-03-26T22:34:36.046Z,3.40
2019-03-26T22:37:03.464Z,3.55
2019-03-26T22:39:30.924Z,4.03
2019-03-26T22:41:58.319Z,3.20
2019-03-26T22:44:31.504Z,3.50
2019-03-26T22:46:55.871Z,3.20
2019-03-26T22:49:23.282Z,4.15
2019-03-26T22:51:51.370Z,3.80
2019-03-26T22:54:18.766Z,4.23
2019-03-26T22:56:46.157Z,3.40
2019-03-26T22:59:13.563Z,3.50
2019-03-26T23:01:41.043Z,3.52
2019-03-26T23:04:08.424Z,4.83
2019-03-26T23:06:35.803Z,4.30
2019-03-26T23:09:04.054Z,3.43
2019-03-26T23:11:31.471Z,3.65
2019-03-26T23:13:58.874Z,3.90
2019-03-26T23:16:26.338Z,4.00
2019-03-26T23:18:53.713Z,4.73
2019-03-26T23:21:24.244Z,4.90
2019-03-26T23:23:51.689Z,4.62
2019-03-26T23:26:19.165Z,4.47
2019-03-26T23:28:46.545Z,4.58
2019-03-26T23:31:13.926Z,4.35
2019-03-26T23:33:41.336Z,5.10
2019-03-26T23:36:08.712Z,4.72
2019-03-26T23:38:36.120Z,4.67
2019-03-26T23:41:03.660Z,4.70
2019-03-26T23:43:31.134Z,4.28
2019-03-26T23:45:58.517Z,4.40
2019-03-26T23:48:26.018Z,4.08
2019-03-26T23:50:53.412Z,4.75
2019-03-26T23:53:20.792Z,4.70
2019-03-26T23:55:48.178Z,4.80
2019-03-26T23:58:15.592Z,4.85
